Camilo Aldao, Argentina
Current Conditions -  °F | °C
As of 3:00 PM on Saturday 20 Dec 2014 (Local Time) from SAAR Reporting Station
Broken Clouds Broken Clouds  
Wind Chill: 22°   Ceiling: 10000
Heat Index: 22°   Visibility: 6mi
Dew Point: 18°   Wind: 16mph
Humidity: 78%   Direction: 180°S
Pressure: 29.53"   Gusts: NA
Location:  33.13°S, 62.1°W
Report Text: SAAR 201800Z 18014KT 9999 FEW018 SCT023BKN100 22/18 Q1000
Loading
Personal Weather Stations






























Interactive Weather Map New forecast layout! Learn more

10-Day Weather Forecast

Advertisements
Track Severe Weather on mobile